Berino, New Mexico
Current Conditions -  °F | °C
As of 2:58 AM on Monday 22 Dec 2014 (Local Time) from KBIF Reporting Station
Clear Clear  
Wind Chill: 54°   Ceiling: Unl
Heat Index: 54°   Visibility: 7mi
Dew Point: 29°   Wind: 17mph
Humidity: 39%   Direction: 280°W
Pressure: 29.9"   Gusts: 23mph
Location:  32.07°N, 106.62°W
Report Text: KBIF 220958Z AUTO 28015G20KT 7SM CLR 12/M01 A2990 RMK AO2 PK WND 28039/08 SLP087 T01231014 $
Loading
Personal Weather Stations






























Interactive Weather Map New forecast layout! Learn more

10-Day Weather Forecast

Advertisements
Track Severe Weather on mobile